Time;durP1;ratioP1;P1;durP2;ratioP2;P2;SDS_P1;SDS_P2;PMS_P1;PMS_P2;Temp;Humidity;BMP_temperature;BMP_pressure;BME280_temperature;BME280_humidity;BME280_pressure;Samples;Min_cycle;Max_cycle;Signal;HPM_P1;HPM_P2
2023/04/22 00:01:47;;;;;;;66.82;35.22;;;7.40;99.90;;;;;;5047877;28;20053;-74
2023/04/22 00:04:14;;;;;;;49.92;27.92;;;7.30;99.90;;;;;;5047814;28;20505;-73
2023/04/22 00:06:42;;;;;;;37.40;20.85;;;7.30;99.90;;;;;;5047725;28;20045;-76
2023/04/22 00:09:10;;;;;;;35.08;19.20;;;7.20;99.90;;;;;;5048892;28;20037;-75
2023/04/22 00:11:38;;;;;;;40.50;22.08;;;7.20;99.90;;;;;;5048897;28;20049;-74
2023/04/22 00:14:05;;;;;;;48.00;26.67;;;7.20;99.90;;;;;;5048547;28;20115;-74
2023/04/22 00:16:33;;;;;;;51.63;30.00;;;7.10;99.90;;;;;;5047965;28;20041;-73
2023/04/22 00:19:01;;;;;;;51.90;29.95;;;7.10;99.90;;;;;;5048423;28;20078;-74
2023/04/22 00:21:29;;;;;;;49.00;29.80;;;7.10;99.90;;;;;;5050576;28;20053;-74
2023/04/22 00:23:56;;;;;;;44.15;27.25;;;7.10;99.90;;;;;;5032771;28;20052;-73
2023/04/22 00:26:24;;;;;;;49.97;26.65;;;7.00;99.90;;;;;;5049594;28;20064;-73
2023/04/22 00:28:51;;;;;;;43.95;25.75;;;7.00;99.90;;;;;;5030200;28;20099;-74
2023/04/22 00:31:19;;;;;;;41.25;25.55;;;7.00;99.90;;;;;;5030553;28;20569;-74
2023/04/22 00:33:46;;;;;;;42.47;24.55;;;6.90;99.90;;;;;;5043221;28;20131;-74
2023/04/22 00:36:15;;;;;;;34.90;21.85;;;6.80;99.90;;;;;;5050000;28;20041;-74
2023/04/22 00:38:48;;;;;;;33.75;21.80;;;6.70;99.90;;;;;;5050888;28;20083;-74
2023/04/22 00:41:16;;;;;;;35.92;21.77;;;6.60;99.90;;;;;;5050845;28;20037;-73
2023/04/22 00:43:44;;;;;;;38.33;21.73;;;6.60;99.90;;;;;;5055480;28;20045;-73
2023/04/22 00:46:11;;;;;;;32.33;21.13;;;6.60;99.90;;;;;;5033699;28;20041;-73
2023/04/22 00:48:39;;;;;;;35.15;21.67;;;6.60;99.90;;;;;;5032759;28;20134;-74
2023/04/22 00:51:07;;;;;;;34.78;21.10;;;6.60;99.90;;;;;;5043500;28;20041;-74
2023/04/22 00:53:36;;;;;;;35.05;21.08;;;6.60;99.90;;;;;;5027707;28;20042;-74
2023/04/22 00:56:04;;;;;;;39.05;22.10;;;6.70;99.90;;;;;;5013593;28;20041;-74
2023/04/22 00:58:33;;;;;;;35.53;21.70;;;6.60;99.90;;;;;;5047933;28;20096;-74
2023/04/22 01:01:00;;;;;;;42.50;21.40;;;6.60;99.90;;;;;;5049904;28;20183;-74
2023/04/22 01:03:29;;;;;;;42.08;23.83;;;6.60;99.90;;;;;;5049149;28;20489;-74
2023/04/22 01:05:57;;;;;;;54.13;26.35;;;6.50;99.90;;;;;;5049213;28;20041;-74
2023/04/22 01:08:29;;;;;;;50.78;27.27;;;6.50;99.90;;;;;;5050028;28;20037;-74
2023/04/22 01:10:58;;;;;;;45.00;25.15;;;6.50;99.90;;;;;;5049744;28;20044;-74
2023/04/22 01:13:26;;;;;;;41.38;23.83;;;6.50;99.90;;;;;;5031584;28;20049;-74
2023/04/22 01:15:53;;;;;;;45.95;24.35;;;6.60;99.90;;;;;;5054843;28;20075;-73
2023/04/22 01:18:21;;;;;;;45.40;23.55;;;6.60;99.90;;;;;;5028992;28;20144;-74
2023/04/22 01:20:49;;;;;;;46.40;24.02;;;6.60;99.90;;;;;;5024413;28;20136;-73
2023/04/22 01:23:21;;;;;;;46.53;24.45;;;6.50;99.90;;;;;;5020684;28;20082;-74
2023/04/22 01:25:49;;;;;;;45.40;21.58;;;6.50;99.90;;;;;;5018030;28;20045;-73
2023/04/22 01:28:18;;;;;;;41.63;21.85;;;6.40;99.90;;;;;;5005966;28;20074;-72
2023/04/22 01:30:45;;;;;;;37.20;20.77;;;6.40;99.90;;;;;;5006463;28;20061;-73
2023/04/22 01:33:13;;;;;;;38.35;22.50;;;6.40;99.90;;;;;;5017132;28;20539;-76
2023/04/22 01:35:41;;;;;;;39.70;21.80;;;6.30;99.90;;;;;;5016811;28;20057;-75
2023/04/22 01:38:09;;;;;;;43.38;23.13;;;6.30;99.90;;;;;;5007037;28;20089;-74
2023/04/22 01:40:39;;;;;;;44.38;22.05;;;6.20;99.90;;;;;;5015787;28;20041;-74
2023/04/22 01:43:07;;;;;;;40.70;22.23;;;6.20;99.90;;;;;;5019935;28;20053;-74
2023/04/22 01:45:35;;;;;;;44.30;23.42;;;6.20;99.90;;;;;;5009386;28;20038;-74
2023/04/22 01:48:02;;;;;;;37.05;22.42;;;6.20;99.90;;;;;;5006836;28;20049;-73
2023/04/22 01:50:30;;;;;;;41.00;22.35;;;6.30;99.90;;;;;;5035284;28;20057;-75
2023/04/22 01:52:57;;;;;;;39.42;21.98;;;6.30;99.90;;;;;;5022693;28;20667;-73
2023/04/22 01:55:25;;;;;;;40.70;20.08;;;6.20;99.90;;;;;;5002673;28;20529;-73
2023/04/22 01:57:54;;;;;;;30.63;19.30;;;6.20;99.90;;;;;;5012761;28;20128;-73
2023/04/22 02:00:21;;;;;;;37.70;20.35;;;6.20;99.90;;;;;;5014910;28;20053;-75
2023/04/22 02:02:49;;;;;;;35.25;19.75;;;6.10;99.90;;;;;;5015090;28;20387;-73
2023/04/22 02:05:17;;;;;;;48.15;18.83;;;6.10;99.90;;;;;;5000248;28;20037;-74
2023/04/22 02:07:47;;;;;;;32.58;19.52;;;6.10;99.90;;;;;;5014684;28;20057;-74
2023/04/22 02:10:17;;;;;;;30.73;17.83;;;6.10;99.90;;;;;;5013944;28;20064;-74
2023/04/22 02:12:44;;;;;;;29.50;18.23;;;6.10;99.90;;;;;;5017432;28;20037;-73
2023/04/22 02:15:16;;;;;;;29.58;17.55;;;6.00;99.90;;;;;;5011544;28;20464;-73
2023/04/22 02:17:43;;;;;;;34.95;19.38;;;6.00;99.90;;;;;;5009936;28;20045;-74
2023/04/22 02:20:13;;;;;;;37.65;19.02;;;6.00;99.90;;;;;;5051628;28;20032;-74
2023/04/22 02:22:42;;;;;;;31.27;17.33;;;6.00;99.90;;;;;;5029754;28;20468;-74
2023/04/22 02:25:11;;;;;;;36.58;19.05;;;5.90;99.90;;;;;;5031634;28;20048;-73
2023/04/22 02:27:38;;;;;;;30.27;17.80;;;5.90;99.90;;;;;;5049394;28;20041;-73
2023/04/22 02:30:07;;;;;;;31.63;19.70;;;5.90;99.90;;;;;;5029507;28;20650;-74
2023/04/22 02:32:38;;;;;;;34.92;20.77;;;5.90;99.90;;;;;;5028180;28;20098;-73
2023/04/22 02:35:07;;;;;;;36.45;20.60;;;5.80;99.90;;;;;;5028086;28;20068;-72
2023/04/22 02:37:34;;;;;;;34.30;22.15;;;5.80;99.90;;;;;;5031105;28;20448;-73
2023/04/22 02:40:02;;;;;;;36.63;20.38;;;5.80;99.90;;;;;;5047167;28;20071;-75
2023/04/22 02:42:31;;;;;;;34.33;21.65;;;5.80;99.90;;;;;;5033408;28;20033;-74
2023/04/22 02:44:58;;;;;;;32.65;20.25;;;5.80;99.90;;;;;;5048646;28;20144;-73
2023/04/22 02:47:26;;;;;;;28.80;19.15;;;5.70;99.90;;;;;;5030731;28;20045;-74
2023/04/22 02:49:55;;;;;;;28.25;18.58;;;5.80;99.90;;;;;;5030723;28;20041;-74
2023/04/22 02:52:22;;;;;;;30.05;17.60;;;5.70;99.90;;;;;;5047722;28;20055;-74
2023/04/22 02:54:49;;;;;;;28.73;16.75;;;5.70;99.90;;;;;;5047733;28;20044;-74
2023/04/22 02:57:17;;;;;;;28.00;16.35;;;5.70;99.90;;;;;;5029993;28;20045;-73
2023/04/22 02:59:45;;;;;;;28.17;15.75;;;5.70;99.90;;;;;;5043631;28;20049;-74
2023/04/22 03:02:15;;;;;;;29.45;17.20;;;5.70;99.90;;;;;;5026434;28;20497;-74
2023/04/22 03:05:03;;;;;;;32.72;16.17;;;5.60;99.90;;;;;;5028198;28;20113;-73
2023/04/22 03:07:31;;;;;;;27.95;16.38;;;5.60;99.90;;;;;;5013791;28;20572;-74
2023/04/22 03:09:59;;;;;;;29.88;16.70;;;5.60;99.90;;;;;;5011867;28;20033;-74
2023/04/22 03:12:27;;;;;;;27.73;16.90;;;5.60;99.90;;;;;;5010500;28;20053;-76
2023/04/22 03:14:54;;;;;;;28.33;15.63;;;5.60;99.90;;;;;;5033001;28;20036;-73
2023/04/22 03:17:24;;;;;;;25.58;15.02;;;5.60;99.90;;;;;;5038960;28;20071;-74
2023/04/22 03:19:52;;;;;;;29.50;18.80;;;5.60;99.90;;;;;;5030377;28;20076;-73
2023/04/22 03:22:22;;;;;;;45.97;24.90;;;5.50;99.90;;;;;;5029514;28;20049;-75
2023/04/22 03:24:52;;;;;;;34.08;18.88;;;5.50;99.90;;;;;;5025991;28;20379;-74
2023/04/22 03:27:20;;;;;;;26.70;16.80;;;5.50;99.90;;;;;;5021206;28;20038;-74
2023/04/22 03:29:47;;;;;;;31.23;16.10;;;5.60;99.90;;;;;;5009720;28;20041;-73
2023/04/22 03:32:15;;;;;;;32.15;17.33;;;5.60;99.90;;;;;;5028066;28;20049;-74
2023/04/22 03:34:42;;;;;;;33.00;15.93;;;5.50;99.90;;;;;;5009871;28;20119;-74
2023/04/22 03:37:11;;;;;;;28.38;16.85;;;5.50;99.90;;;;;;5010101;28;20065;-74
2023/04/22 03:39:40;;;;;;;28.20;16.90;;;5.40;99.90;;;;;;5009329;28;20590;-73
2023/04/22 03:42:08;;;;;;;33.25;17.58;;;5.40;99.90;;;;;;5012785;28;20045;-73
2023/04/22 03:44:41;;;;;;;32.92;18.27;;;5.40;99.90;;;;;;5014383;28;20052;-73
2023/04/22 03:47:08;;;;;;;33.95;19.92;;;5.40;99.90;;;;;;5047870;28;20120;-74
2023/04/22 03:49:42;;;;;;;32.17;18.75;;;5.40;99.90;;;;;;5031075;28;20080;-74
2023/04/22 03:52:10;;;;;;;32.03;18.58;;;5.40;99.90;;;;;;5026640;28;20045;-74
2023/04/22 03:54:43;;;;;;;35.80;18.73;;;5.30;99.90;;;;;;5020648;28;20037;-74
2023/04/22 03:57:11;;;;;;;31.38;19.00;;;5.20;99.90;;;;;;5013557;28;20049;-73
2023/04/22 03:59:39;;;;;;;39.55;19.92;;;5.20;99.90;;;;;;5017573;28;21458;-73
2023/04/22 04:02:07;;;;;;;35.50;18.80;;;5.20;99.90;;;;;;5034456;28;20049;-74
2023/04/22 04:04:35;;;;;;;33.45;18.20;;;5.20;99.90;;;;;;5053349;28;20120;-75
2023/04/22 04:07:02;;;;;;;32.83;18.98;;;5.20;99.90;;;;;;5033937;28;20415;-74
2023/04/22 04:09:30;;;;;;;36.60;18.25;;;5.20;99.90;;;;;;5030854;28;20045;-73
2023/04/22 04:11:59;;;;;;;29.92;17.33;;;5.30;99.90;;;;;;5032011;28;20049;-72
2023/04/22 04:14:31;;;;;;;27.33;18.05;;;5.40;99.90;;;;;;5015789;28;20041;-73
2023/04/22 04:16:59;;;;;;;32.88;18.80;;;5.40;99.90;;;;;;5034204;28;20044;-73
2023/04/22 04:19:30;;;;;;;27.50;16.08;;;5.50;99.90;;;;;;5039037;28;20516;-73
2023/04/22 04:21:58;;;;;;;28.63;17.17;;;5.60;99.90;;;;;;5031554;28;20042;-73
2023/04/22 04:24:28;;;;;;;24.02;14.73;;;5.60;99.90;;;;;;5024511;28;20108;-73
2023/04/22 04:27:03;;;;;;;24.88;15.20;;;5.60;99.90;;;;;;5013043;28;20583;-73
2023/04/22 04:29:38;;;;;;;32.42;18.13;;;5.70;99.90;;;;;;5033317;28;20056;-74
2023/04/22 04:32:13;;;;;;;30.35;18.02;;;5.80;99.90;;;;;;5037393;28;20416;-73
2023/04/22 04:34:41;;;;;;;29.35;18.45;;;5.90;99.90;;;;;;5035299;28;20419;-73
2023/04/22 04:37:10;;;;;;;28.67;17.80;;;6.00;99.90;;;;;;5030734;28;20046;-73
2023/04/22 04:40:00;;;;;;;30.73;19.60;;;6.10;99.90;;;;;;5019299;28;20100;-73
2023/04/22 04:42:42;;;;;;;35.35;18.90;;;6.00;99.90;;;;;;5013631;28;20131;-74
2023/04/22 04:45:16;;;;;;;27.23;17.60;;;6.10;99.90;;;;;;5013291;28;20298;-74
2023/04/22 04:47:45;;;;;;;36.20;19.02;;;6.10;99.90;;;;;;5012817;28;20124;-73
2023/04/22 04:50:22;;;;;;;28.05;20.27;;;6.10;99.90;;;;;;5004813;28;20108;-74
2023/04/22 04:52:51;;;;;;;30.50;20.27;;;6.20;99.90;;;;;;5032840;28;20045;-73
2023/04/22 04:55:23;;;;;;;33.40;19.77;;;6.30;99.90;;;;;;5033192;28;20037;-74
2023/04/22 04:57:52;;;;;;;35.08;19.88;;;6.50;99.90;;;;;;5032405;28;20037;-75
2023/04/22 05:00:20;;;;;;;30.00;18.08;;;6.70;99.90;;;;;;5031659;28;20039;-73
2023/04/22 05:02:47;;;;;;;34.17;19.67;;;6.80;99.90;;;;;;5030334;28;20049;-74
2023/04/22 05:05:15;;;;;;;33.10;19.00;;;6.80;99.90;;;;;;5031597;28;20045;-75
2023/04/22 05:07:44;;;;;;;35.45;21.00;;;6.90;99.90;;;;;;5013896;28;20121;-74
2023/04/22 05:10:13;;;;;;;39.45;28.10;;;6.80;99.90;;;;;;5021567;28;20413;-75
2023/04/22 05:12:42;;;;;;;54.00;38.78;;;6.80;99.90;;;;;;5012899;28;20045;-74
2023/04/22 05:15:16;;;;;;;52.53;32.25;;;6.80;99.90;;;;;;5011456;28;20111;-74
2023/04/22 05:17:44;;;;;;;28.65;19.27;;;6.80;99.90;;;;;;5011983;28;20068;-74
2023/04/22 05:20:12;;;;;;;43.88;25.20;;;7.00;99.90;;;;;;5030634;28;20513;-73
2023/04/22 05:22:42;;;;;;;61.47;39.17;;;7.00;99.90;;;;;;5012668;28;20048;-74
2023/04/22 05:25:11;;;;;;;43.40;26.95;;;6.90;99.90;;;;;;5012591;28;20053;-74
2023/04/22 05:27:44;;;;;;;39.72;26.13;;;6.90;99.90;;;;;;5012500;28;20095;-74
2023/04/22 05:30:13;;;;;;;46.53;26.85;;;7.10;99.90;;;;;;5010712;28;20046;-74
2023/04/22 05:32:42;;;;;;;39.53;24.45;;;7.00;99.90;;;;;;5015146;28;20060;-74
2023/04/22 05:35:10;;;;;;;40.45;23.95;;;7.10;99.90;;;;;;5032632;28;20118;-74
2023/04/22 05:37:39;;;;;;;46.13;28.00;;;7.20;99.90;;;;;;5031088;28;20099;-74
2023/04/22 05:40:08;;;;;;;34.90;21.23;;;7.50;99.90;;;;;;5030992;28;20127;-75
2023/04/22 05:42:36;;;;;;;31.83;18.48;;;7.60;99.90;;;;;;5029364;28;20099;-74
2023/04/22 05:45:04;;;;;;;32.15;18.88;;;7.70;99.90;;;;;;5031118;28;20041;-74
2023/04/22 05:47:31;;;;;;;25.30;18.25;;;7.80;99.90;;;;;;5030046;28;20045;-73
2023/04/22 05:50:00;;;;;;;25.45;17.05;;;7.90;99.90;;;;;;5029414;28;20501;-74
2023/04/22 05:52:36;;;;;;;32.47;18.10;;;8.20;99.90;;;;;;5012126;28;20561;-74
2023/04/22 05:55:09;;;;;;;33.10;19.42;;;8.30;99.90;;;;;;5012335;28;20041;-74
2023/04/22 05:57:37;;;;;;;37.40;19.40;;;8.30;99.90;;;;;;5010770;28;20077;-74
2023/04/22 06:00:09;;;;;;;32.78;20.25;;;8.60;99.90;;;;;;5010153;28;20033;-73
2023/04/22 06:02:51;;;;;;;31.63;20.17;;;8.70;99.90;;;;;;5030317;28;20628;-74
2023/04/22 06:05:20;;;;;;;38.05;22.08;;;9.00;99.90;;;;;;5031040;28;20049;-74
2023/04/22 06:07:48;;;;;;;37.75;22.98;;;9.30;99.90;;;;;;5019773;28;20132;-75
2023/04/22 06:10:15;;;;;;;38.75;23.95;;;9.50;99.90;;;;;;5044864;28;20500;-74
2023/04/22 06:12:43;;;;;;;35.97;21.75;;;9.80;99.90;;;;;;5013904;28;20071;-73
2023/04/22 06:15:11;;;;;;;30.67;19.48;;;9.80;99.90;;;;;;5041630;28;20041;-75
2023/04/22 06:17:39;;;;;;;29.10;17.65;;;10.00;99.90;;;;;;5026825;28;20128;-74
2023/04/22 06:20:08;;;;;;;33.33;17.90;;;10.10;99.90;;;;;;5013135;28;20073;-74
2023/04/22 06:22:37;;;;;;;30.60;16.90;;;10.00;99.90;;;;;;5012252;28;20045;-74
2023/04/22 06:25:05;;;;;;;28.02;17.65;;;10.20;99.90;;;;;;5011922;28;20045;-74
2023/04/22 06:27:33;;;;;;;29.45;19.00;;;10.40;99.90;;;;;;5012065;28;20080;-75
2023/04/22 06:30:01;;;;;;;31.73;19.50;;;10.80;99.90;;;;;;5012142;28;20030;-74
2023/04/22 06:32:30;;;;;;;28.40;17.92;;;11.10;99.90;;;;;;5014405;28;20049;-74
2023/04/22 06:34:58;;;;;;;25.63;17.30;;;11.50;99.90;;;;;;5034386;28;20127;-74
2023/04/22 06:37:26;;;;;;;28.77;18.98;;;11.70;99.90;;;;;;5040700;28;20120;-75
2023/04/22 06:39:55;;;;;;;31.85;17.33;;;11.60;99.90;;;;;;5034322;28;20099;-74
2023/04/22 06:42:40;;;;;;;30.88;18.27;;;11.60;99.90;;;;;;5037042;28;20040;-75
2023/04/22 06:45:37;;;;;;;27.92;17.00;;;12.00;99.90;;;;;;4981477;28;20134;-74
2023/04/22 06:48:17;;;;;;;29.85;15.90;;;12.40;99.90;;;;;;5015917;28;20132;-73
2023/04/22 06:51:05;;;;;;;30.40;17.20;;;12.40;99.90;;;;;;5035001;28;20060;-76
2023/04/22 06:53:32;;;;;;;22.90;14.05;;;12.70;99.90;;;;;;5033312;28;20926;-74
2023/04/22 06:56:01;;;;;;;30.42;14.82;;;13.10;99.90;;;;;;5053134;28;20424;-73
2023/04/22 06:58:29;;;;;;;30.17;15.80;;;13.50;99.90;;;;;;5031246;28;20421;-74
2023/04/22 07:00:56;;;;;;;33.38;15.63;;;13.80;99.90;;;;;;5029711;28;20056;-73
2023/04/22 07:03:24;;;;;;;28.08;15.43;;;13.70;99.90;;;;;;5029865;28;20043;-73
2023/04/22 07:06:02;;;;;;;25.63;15.68;;;13.60;99.90;;;;;;5030959;28;20041;-73
2023/04/22 07:08:31;;;;;;;29.35;16.13;;;13.50;99.90;;;;;;5029709;28;20063;-73
2023/04/22 07:11:01;;;;;;;34.55;17.17;;;13.20;99.90;;;;;;5029786;28;20037;-73
2023/04/22 07:13:55;;;;;;;30.20;15.53;;;13.30;99.90;;;;;;5027012;28;20053;-75
2023/04/22 07:16:22;;;;;;;26.45;16.02;;;13.50;99.90;;;;;;5046716;28;20481;-73
2023/04/22 07:18:51;;;;;;;31.42;16.55;;;13.80;99.90;;;;;;5030459;28;20103;-74
2023/04/22 07:21:18;;;;;;;31.90;17.73;;;14.30;99.90;;;;;;5039705;28;20080;-73
2023/04/22 07:23:46;;;;;;;30.40;17.83;;;14.70;99.90;;;;;;5027892;28;20041;-74
2023/04/22 07:26:15;;;;;;;33.28;18.00;;;14.90;99.90;;;;;;5010325;28;20042;-74
2023/04/22 07:28:42;;;;;;;42.20;21.15;;;15.10;99.90;;;;;;5047524;28;20036;-74
2023/04/22 07:31:10;;;;;;;41.58;20.02;;;15.30;99.90;;;;;;5052521;28;20393;-74
2023/04/22 07:33:37;;;;;;;36.85;20.35;;;15.20;99.90;;;;;;5048262;28;20140;-74
2023/04/22 07:36:05;;;;;;;31.65;19.35;;;15.30;99.90;;;;;;5046711;28;20037;-74
2023/04/22 07:38:32;;;;;;;35.85;18.77;;;15.70;99.90;;;;;;5047610;28;20037;-74
2023/04/22 07:41:00;;;;;;;34.88;19.25;;;16.00;96.50;;;;;;5047426;28;20057;-73
2023/04/22 07:43:29;;;;;;;33.53;18.25;;;16.10;94.10;;;;;;5047918;28;20041;-73
2023/04/22 07:45:56;;;;;;;36.95;19.33;;;16.00;93.60;;;;;;5046309;28;20041;-74
2023/04/22 07:48:24;;;;;;;31.55;18.00;;;16.00;93.50;;;;;;5047437;28;20489;-73
2023/04/22 07:50:51;;;;;;;30.85;17.95;;;16.20;92.50;;;;;;5047381;28;20522;-74
2023/04/22 07:53:20;;;;;;;33.55;19.67;;;16.50;91.70;;;;;;5029774;28;20048;-74
2023/04/22 07:55:48;;;;;;;32.95;19.20;;;16.70;90.80;;;;;;5047384;28;20052;-73
2023/04/22 07:58:16;;;;;;;35.78;18.33;;;16.80;88.90;;;;;;5029281;28;20045;-73
2023/04/22 08:00:44;;;;;;;30.80;17.85;;;16.60;87.40;;;;;;5032260;28;20040;-74
2023/04/22 08:03:12;;;;;;;32.53;18.55;;;16.70;87.20;;;;;;5043645;28;20045;-74
2023/04/22 08:05:40;;;;;;;35.13;19.52;;;16.80;87.20;;;;;;5027634;28;20413;-76
2023/04/22 08:08:08;;;;;;;35.55;18.80;;;16.90;86.10;;;;;;5010218;28;20053;-73
2023/04/22 08:10:36;;;;;;;33.20;18.70;;;17.10;86.20;;;;;;5044454;28;20053;-74
2023/04/22 08:13:03;;;;;;;29.63;17.52;;;17.20;85.20;;;;;;5046856;28;20069;-74
2023/04/22 08:15:46;;;;;;;35.13;18.05;;;17.50;84.20;;;;;;5047719;28;20116;-73
2023/04/22 08:18:18;;;;;;;37.08;20.98;;;17.60;82.10;;;;;;5048193;28;20071;-75
2023/04/22 08:20:49;;;;;;;35.25;18.20;;;17.60;83.20;;;;;;5037987;28;20049;-74
2023/04/22 08:23:17;;;;;;;31.77;17.73;;;17.40;83.30;;;;;;5031099;28;20497;-75
2023/04/22 08:25:45;;;;;;;32.20;17.77;;;17.60;82.80;;;;;;5031484;28;20115;-73
2023/04/22 08:28:12;;;;;;;32.33;19.38;;;17.90;81.00;;;;;;5049156;28;20049;-73
2023/04/22 08:30:40;;;;;;;28.73;16.63;;;18.20;77.30;;;;;;5047209;28;20045;-73
2023/04/22 08:33:07;;;;;;;26.73;15.02;;;18.40;76.00;;;;;;5048216;28;20559;-73
2023/04/22 08:35:36;;;;;;;27.13;13.95;;;18.40;75.50;;;;;;5049830;28;20047;-74
2023/04/22 08:38:04;;;;;;;24.63;12.48;;;18.60;72.20;;;;;;5031394;28;20049;-73
2023/04/22 08:40:31;;;;;;;24.92;12.20;;;18.70;70.50;;;;;;5049853;28;20173;-73
2023/04/22 08:42:59;;;;;;;20.90;11.77;;;18.70;69.30;;;;;;5050960;28;20600;-73
2023/04/22 08:45:27;;;;;;;25.17;12.05;;;18.70;68.20;;;;;;5052247;28;20048;-73
2023/04/22 08:47:55;;;;;;;23.98;12.18;;;18.90;68.10;;;;;;5051624;28;20079;-73
2023/04/22 08:50:23;;;;;;;19.88;10.32;;;18.80;67.30;;;;;;5049789;28;20262;-73
2023/04/22 08:52:51;;;;;;;19.45;10.02;;;18.70;66.50;;;;;;5050304;28;20064;-73
2023/04/22 08:55:19;;;;;;;21.08;11.40;;;18.80;66.70;;;;;;5049820;28;20405;-75
2023/04/22 08:57:49;;;;;;;23.58;12.02;;;19.00;66.50;;;;;;5050256;28;20493;-75
2023/04/22 09:00:17;;;;;;;20.40;11.15;;;19.20;66.10;;;;;;5031601;28;20064;-73
2023/04/22 09:02:47;;;;;;;20.95;10.88;;;19.40;65.90;;;;;;5049629;28;20041;-73
2023/04/22 09:05:15;;;;;;;18.75;9.57;;;19.50;64.50;;;;;;5050508;28;20040;-73
2023/04/22 09:07:43;;;;;;;22.95;10.38;;;19.40;62.00;;;;;;5050560;28;20119;-72
2023/04/22 09:10:12;;;;;;;25.52;10.00;;;19.60;61.70;;;;;;5049264;28;20461;-74
2023/04/22 09:12:41;;;;;;;22.23;10.40;;;19.70;60.50;;;;;;5049450;28;20055;-73
2023/04/22 09:15:10;;;;;;;22.98;10.52;;;19.90;58.70;;;;;;5050516;28;20039;-74
2023/04/22 09:17:38;;;;;;;18.60;8.07;;;20.10;58.50;;;;;;5050816;28;20142;-72
2023/04/22 09:20:07;;;;;;;18.05;8.48;;;20.10;56.60;;;;;;5054175;28;20505;-73
2023/04/22 09:22:40;;;;;;;18.58;7.90;;;20.00;56.40;;;;;;5055232;28;20052;-73
2023/04/22 09:25:17;;;;;;;12.57;6.75;;;20.00;53.50;;;;;;5052961;28;20049;-73
2023/04/22 09:27:47;;;;;;;14.13;8.55;;;20.00;52.00;;;;;;5049564;28;20040;-73
2023/04/22 09:30:17;;;;;;;17.63;8.50;;;20.30;52.70;;;;;;5048581;28;20037;-73
2023/04/22 09:32:53;;;;;;;15.02;7.80;;;20.70;52.30;;;;;;5049751;28;20148;-72
2023/04/22 09:35:28;;;;;;;14.02;7.47;;;21.20;51.20;;;;;;5049410;28;20498;-75
2023/04/22 09:37:57;;;;;;;;;;;21.30;49.20;;;;;;5050282;28;20128;-72
2023/04/22 09:40:27;;;;;;;15.77;7.53;;;21.30;48.30;;;;;;5048012;28;19935;-74
2023/04/22 09:42:55;;;;;;;13.63;6.57;;;21.70;47.00;;;;;;5048898;28;20076;-75
2023/04/22 09:45:30;;;;;;;23.60;8.55;;;22.10;46.00;;;;;;5047631;28;20068;-73
2023/04/22 09:48:02;;;;;;;16.23;7.00;;;22.10;46.00;;;;;;5048793;28;20067;-74
2023/04/22 09:50:30;;;;;;;12.65;7.40;;;22.10;45.00;;;;;;5029474;28;20045;-74
2023/04/22 09:53:00;;;;;;;12.85;7.43;;;22.50;45.20;;;;;;5048780;28;20056;-73
2023/04/22 09:55:31;;;;;;;10.55;7.00;;;22.90;43.00;;;;;;5049266;28;20057;-73
2023/04/22 09:58:06;;;;;;;15.63;7.70;;;23.20;41.40;;;;;;5048912;28;20083;-73
2023/04/22 10:00:36;;;;;;;13.57;8.23;;;23.70;40.80;;;;;;5048932;28;20064;-73
2023/04/22 10:03:04;;;;;;;13.20;7.50;;;23.90;39.40;;;;;;5030661;28;20342;-73
2023/04/22 10:05:32;;;;;;;15.25;8.82;;;24.00;38.70;;;;;;5029186;28;20053;-73
2023/04/22 10:08:00;;;;;;;12.77;6.97;;;24.20;38.70;;;;;;5027930;28;20077;-74
2023/04/22 10:10:30;;;;;;;12.80;8.48;;;24.20;37.10;;;;;;5013058;28;20077;-73
2023/04/22 10:12:58;;;;;;;13.45;7.00;;;23.90;36.50;;;;;;5041818;28;20052;-72
2023/04/22 10:15:26;;;;;;;16.73;8.43;;;23.60;36.40;;;;;;5049370;28;20087;-74
2023/04/22 10:17:56;;;;;;;13.75;6.78;;;23.30;37.80;;;;;;5049397;28;20063;-73
2023/04/22 10:20:26;;;;;;;9.75;6.70;;;23.10;38.40;;;;;;5048583;28;20141;-72
2023/04/22 10:22:56;;;;;;;17.65;7.53;;;22.90;39.00;;;;;;5050029;28;20041;-74
2023/04/22 10:25:24;;;;;;;14.20;6.35;;;22.60;39.50;;;;;;5049363;28;20041;-73
2023/04/22 10:28:03;;;;;;;11.75;6.35;;;22.20;38.90;;;;;;5050300;28;20216;-73
2023/04/22 10:30:32;;;;;;;13.15;7.13;;;22.10;38.80;;;;;;5050653;28;20045;-73
2023/04/22 10:33:34;;;;;;;14.48;8.00;;;22.00;39.50;;;;;;5042180;28;20072;-74
2023/04/22 10:36:08;;;;;;;10.98;7.03;;;22.20;38.90;;;;;;5037683;28;20044;-72
2023/04/22 10:38:36;;;;;;;11.30;6.50;;;22.40;39.10;;;;;;5043591;28;20037;-74
2023/04/22 10:41:04;;;;;;;10.90;6.90;;;22.70;38.60;;;;;;5049037;28;20049;-73
2023/04/22 10:43:57;;;;;;;12.10;5.85;;;22.70;37.50;;;;;;5049190;28;20084;-74
2023/04/22 10:46:58;;;;;;;11.48;6.50;;;22.60;36.50;;;;;;5044514;28;20061;-73
2023/04/22 10:49:29;;;;;;;11.45;5.95;;;22.30;37.40;;;;;;5034182;28;20095;-73
2023/04/22 10:52:00;;;;;;;12.43;6.00;;;22.50;37.20;;;;;;5044971;28;20094;-73
2023/04/22 10:55:02;;;;;;;10.73;5.90;;;22.40;37.50;;;;;;5047856;28;20533;-74
2023/04/22 10:57:40;;;;;;;8.38;5.05;;;22.30;36.60;;;;;;5029876;28;20037;-75
2023/04/22 11:00:32;;;;;;;15.07;5.78;;;21.90;35.40;;;;;;5046022;28;20132;-72
2023/04/22 11:03:15;;;;;;;8.27;5.20;;;21.40;35.70;;;;;;5046689;28;20052;-73
2023/04/22 11:05:43;;;;;;;8.63;5.18;;;21.30;35.70;;;;;;5046991;28;20055;-74
2023/04/22 11:08:28;;;;;;;8.20;5.13;;;21.10;36.10;;;;;;5047111;28;20044;-73
2023/04/22 11:11:08;;;;;;;7.93;5.05;;;20.90;35.10;;;;;;5047416;28;20140;-74
2023/04/22 11:13:36;;;;;;;10.63;5.60;;;21.00;34.80;;;;;;5047410;28;20056;-73
2023/04/22 11:16:08;;;;;;;9.98;5.25;;;21.10;35.10;;;;;;5047450;28;20124;-73
2023/04/22 11:18:36;;;;;;;8.90;4.38;;;21.10;35.10;;;;;;5046931;28;20413;-73
2023/04/22 11:21:05;;;;;;;8.30;5.10;;;21.20;34.10;;;;;;5045977;28;20052;-73
2023/04/22 11:23:33;;;;;;;10.18;5.43;;;21.20;34.40;;;;;;5046650;28;20033;-74
2023/04/22 11:26:02;;;;;;;11.68;6.90;;;21.40;34.00;;;;;;5048240;28;20044;-74
2023/04/22 11:28:30;;;;;;;12.07;4.90;;;21.30;33.60;;;;;;5047450;28;20083;-74
2023/04/22 11:31:08;;;;;;;7.35;4.97;;;21.20;33.40;;;;;;5047354;28;20148;-73
2023/04/22 11:33:37;;;;;;;14.07;5.55;;;21.30;33.00;;;;;;5048564;28;20542;-73
2023/04/22 11:36:05;;;;;;;9.90;6.10;;;21.50;32.90;;;;;;5028430;28;20052;-74
2023/04/22 11:38:33;;;;;;;11.90;6.15;;;21.70;33.70;;;;;;5044812;28;20477;-72
2023/04/22 11:41:00;;;;;;;7.65;5.07;;;21.80;33.80;;;;;;5027910;28;20132;-73
2023/04/22 11:43:28;;;;;;;10.95;5.10;;;21.80;32.70;;;;;;5027875;28;20049;-74
2023/04/22 11:45:57;;;;;;;7.68;5.72;;;21.70;32.40;;;;;;5040678;28;20049;-74
2023/04/22 11:48:25;;;;;;;19.13;11.38;;;21.60;32.60;;;;;;5046425;28;20106;-74
2023/04/22 11:51:11;;;;;;;8.23;5.18;;;21.80;33.00;;;;;;5046160;28;20034;-72
2023/04/22 11:53:40;;;;;;;10.25;5.13;;;21.80;32.60;;;;;;5046601;28;20111;-73
2023/04/22 11:56:07;;;;;;;6.38;4.45;;;22.00;31.20;;;;;;5048057;28;20478;-73
2023/04/22 11:58:40;;;;;;;10.20;4.95;;;22.10;30.50;;;;;;5050468;28;20128;-74
2023/04/22 12:01:13;;;;;;;8.77;5.53;;;22.00;31.60;;;;;;5052187;28;20049;-74
2023/04/22 12:03:42;;;;;;;7.95;4.75;;;22.10;32.10;;;;;;5029124;28;20049;-73
2023/04/22 12:06:10;;;;;;;10.80;5.03;;;22.10;30.70;;;;;;5046857;28;20476;-73
2023/04/22 12:08:41;;;;;;;6.88;4.93;;;22.20;30.50;;;;;;5047234;28;20142;-73
2023/04/22 12:11:10;;;;;;;10.00;4.50;;;22.10;30.20;;;;;;5047410;28;20472;-75
2023/04/22 12:13:42;;;;;;;8.43;5.78;;;22.10;30.40;;;;;;5047892;28;20052;-73
2023/04/22 12:16:12;;;;;;;8.23;4.60;;;22.00;30.10;;;;;;5050096;28;20059;-73
2023/04/22 12:18:41;;;;;;;9.18;4.57;;;21.80;30.70;;;;;;5050383;28;20106;-72
2023/04/22 12:21:11;;;;;;;24.02;19.00;;;21.70;31.00;;;;;;5050313;28;20045;-73
2023/04/22 12:23:43;;;;;;;18.98;12.82;;;21.60;31.70;;;;;;5050255;28;20049;-76
2023/04/22 12:26:10;;;;;;;8.55;5.22;;;21.40;31.40;;;;;;5052645;28;20242;-72
2023/04/22 12:28:39;;;;;;;9.30;5.13;;;21.20;31.70;;;;;;5032703;28;20053;-73
2023/04/22 12:31:07;;;;;;;9.15;5.28;;;21.10;32.10;;;;;;5030189;28;20184;-73
2023/04/22 12:33:35;;;;;;;7.95;4.70;;;21.30;32.40;;;;;;5041375;28;20045;-73
2023/04/22 12:36:05;;;;;;;9.85;5.00;;;21.60;32.10;;;;;;5051819;28;20048;-74
2023/04/22 12:38:34;;;;;;;10.90;5.32;;;21.90;32.30;;;;;;5051281;28;20136;-73
2023/04/22 12:41:02;;;;;;;7.30;4.97;;;22.00;31.30;;;;;;5052168;28;20052;-73
2023/04/22 12:43:31;;;;;;;13.85;5.43;;;22.10;31.20;;;;;;5050987;28;20412;-73
2023/04/22 12:45:59;;;;;;;9.93;5.05;;;22.30;30.80;;;;;;5049875;28;20046;-73
2023/04/22 12:48:26;;;;;;;9.77;5.22;;;22.40;30.60;;;;;;5050271;28;20455;-73
2023/04/22 12:50:54;;;;;;;12.15;5.22;;;22.50;30.70;;;;;;5050214;28;20215;-73